Terminal Aerodrome Forecast
Issued by NWS

Home | Current Version | Previous Version | Text Only | Print | Product List | Glossary On
Versions: 1 2 3 4 5 6 7 8 9 10 11 12 13 14 15 16
000
FTUS46 KMTR 251137
TAFSTS
TAF
KSTS 251137Z 2512/2612 VRB03KT P6SM FEW015 BKN120
     FM252000 24008KT P6SM FEW030 SCT050 BKN100
     FM260300 23005KT P6SM FEW020 SCT035 BKN050
     FM260500 22004KT P6SM FEW015 SCT020 BKN030
     FM261000 VRB03KT P6SM VCSH FEW012 SCT015 BKN025=

USA.gov is the U.S. government's official web portal to all federal, state and local government web resources and services.